Time;durP1;ratioP1;P1;durP2;ratioP2;P2;SDS_P1;SDS_P2;PMS_P1;PMS_P2;Temp;Humidity;BMP_temperature;BMP_pressure;BME280_temperature;BME280_humidity;BME280_pressure;Samples;Min_cycle;Max_cycle;Signal;HPM_P1;HPM_P2
2022/09/08 00:00:07;;;;;;;903.53;847.75;;;;;;;18.96;69.72;99944.06;314584;31;3386;-77
2022/09/08 00:00:18;;;;;;;905.25;849.63;;;;;;;18.95;69.82;99948.50;318723;30;2376;-77
2022/09/08 00:00:28;;;;;;;912.67;856.88;;;;;;;18.98;69.52;99943.00;317937;31;2397;-77
2022/09/08 00:00:39;;;;;;;918.33;862.27;;;;;;;18.98;69.30;99945.63;316206;31;1193;-77
2022/09/08 00:00:50;;;;;;;917.50;861.42;;;;;;;19.00;69.43;99949.03;315700;31;2721;-77
2022/09/08 00:01:00;;;;;;;913.60;857.63;;;;;;;19.01;69.30;99949.88;315846;30;3276;-77
2022/09/08 00:01:15;;;;;;;903.80;847.88;;;;;;;19.02;69.47;99944.47;312557;31;3771;-77
2022/09/08 00:01:25;;;;;;;901.47;845.40;;;;;;;19.01;69.34;99941.94;309592;31;3976;-77
2022/09/08 00:01:36;;;;;;;904.30;848.20;;;;;;;19.00;69.47;99950.84;310750;31;912;-77
2022/09/08 00:01:46;;;;;;;906.50;850.40;;;;;;;18.99;69.96;99943.84;309563;31;4247;-77
2022/09/08 00:01:57;;;;;;;904.20;848.37;;;;;;;19.00;69.38;99945.53;306945;31;4655;-77
2022/09/08 00:02:07;;;;;;;896.30;840.72;;;;;;;19.02;69.50;99951.59;306202;32;1448;-77
2022/09/08 00:02:17;;;;;;;899.60;843.77;;;;;;;19.02;68.95;99951.59;307197;32;4585;-77
2022/09/08 00:02:28;;;;;;;898.87;843.07;;;;;;;19.02;69.02;99946.28;305992;32;3352;-77
2022/09/08 00:02:38;;;;;;;900.67;844.83;;;;;;;19.01;69.42;99947.22;304244;32;1005;-77
2022/09/08 00:02:48;;;;;;;903.57;847.80;;;;;;;19.03;69.31;99946.16;300095;32;3463;-77
2022/09/08 00:03:03;;;;;;;904.97;849.00;;;;;;;19.05;69.07;99951.38;300208;32;4188;-77
2022/09/08 00:03:15;;;;;;;898.17;842.60;;;;;;;19.06;68.67;99953.06;298681;32;5083;-77
2022/09/08 00:03:27;;;;;;;901.70;845.97;;;;;;;19.06;68.66;99950.41;297652;32;5915;-76
2022/09/08 00:03:37;;;;;;;903.20;847.30;;;;;;;19.03;68.81;99950.63;300881;32;1563;-75
2022/09/08 00:03:49;;;;;;;909.13;852.85;;;;;;;19.02;68.86;99946.28;293952;32;5263;-77
2022/09/08 00:04:01;;;;;;;906.78;850.63;;;;;;;19.02;69.14;99952.44;293965;33;5615;-77
2022/09/08 00:04:12;;;;;;;910.60;854.30;;;;;;;19.00;68.97;99950.84;294726;32;6577;-77
2022/09/08 00:04:22;;;;;;;906.57;850.50;;;;;;;18.98;69.00;99950.09;294844;33;2777;-77
2022/09/08 00:04:33;;;;;;;907.70;851.42;;;;;;;18.97;69.03;99951.06;296245;33;6434;-77
2022/09/08 00:04:43;;;;;;;898.97;843.03;;;;;;;18.97;69.11;99951.06;293410;33;5192;-76
2022/09/08 00:04:54;;;;;;;905.20;848.93;;;;;;;18.96;68.99;99949.34;291101;33;1229;-77
2022/09/08 00:05:05;;;;;;;908.40;851.87;;;;;;;18.96;69.06;99949.34;287016;34;5594;-76
2022/09/08 00:05:15;;;;;;;912.35;855.85;;;;;;;18.93;69.73;99945.13;288253;33;6361;-76
2022/09/08 00:05:26;;;;;;;903.67;847.63;;;;;;;18.90;69.78;99951.47;288979;33;7627;-76
2022/09/08 00:07:21;;;;;;;857.60;803.56;;;;;;;18.87;69.54;99948.19;2494290;27;20506;-76
2022/09/08 00:07:32;;;;;;;915.93;859.77;;;;;;;18.89;69.24;99939.19;352531;28;1101;-77
2022/09/08 00:07:42;;;;;;;924.00;867.53;;;;;;;18.90;69.22;99948.81;353171;28;791;-77
2022/09/08 00:07:53;;;;;;;928.50;871.83;;;;;;;18.88;69.52;99949.88;351712;28;832;-77
2022/09/08 00:08:04;;;;;;;935.97;879.03;;;;;;;18.85;69.50;99936.84;348738;28;1313;-77
2022/09/08 00:08:20;;;;;;;934.15;877.28;;;;;;;18.85;69.81;99943.00;351609;28;1375;-77
2022/09/08 00:08:30;;;;;;;934.15;877.28;;;;;;;18.84;69.97;99949.25;351585;28;2105;-77
2022/09/08 00:08:43;;;;;;;931.57;874.77;;;;;;;18.82;70.19;99945.84;348058;28;1357;-77
2022/09/08 00:08:55;;;;;;;923.28;866.80;;;;;;;18.82;69.96;99948.50;349194;28;1256;-77
2022/09/08 00:09:05;;;;;;;930.60;873.90;;;;;;;18.83;69.98;99955.50;348914;28;932;-77
2022/09/08 00:09:16;;;;;;;930.00;873.30;;;;;;;18.81;69.91;99941.50;347393;28;1359;-77
2022/09/08 00:09:26;;;;;;;927.47;870.90;;;;;;;18.82;69.90;99947.66;347338;28;1722;-76
2022/09/08 00:09:37;;;;;;;924.87;868.47;;;;;;;18.81;69.68;99946.81;346074;28;1328;-77
2022/09/08 00:09:47;;;;;;;925.70;869.33;;;;;;;18.80;69.84;99942.47;347993;28;929;-77
2022/09/08 00:09:58;;;;;;;924.70;868.33;;;;;;;18.81;69.56;99938.84;347560;28;809;-76
2022/09/08 00:10:11;;;;;;;932.88;876.17;;;;;;;18.79;69.51;99946.06;348878;28;1317;-76
2022/09/08 00:10:22;;;;;;;932.80;875.88;;;;;;;18.79;70.24;99948.72;347578;28;860;-76
2022/09/08 00:10:33;;;;;;;937.28;880.33;;;;;;;18.80;69.76;99944.25;347737;28;1188;-76
2022/09/08 00:10:43;;;;;;;934.23;877.53;;;;;;;18.80;69.85;99945.13;351621;28;1218;-76
2022/09/08 00:10:56;;;;;;;938.30;881.57;;;;;;;18.81;69.97;99941.50;347384;28;1282;-76
2022/09/08 00:11:07;;;;;;;929.45;873.05;;;;;;;18.85;69.71;99948.31;347361;28;5552;-76
2022/09/08 00:11:19;;;;;;;930.10;873.53;;;;;;;18.83;69.84;99944.91;349679;28;961;-76
2022/09/08 00:11:30;;;;;;;928.50;871.85;;;;;;;18.83;69.46;99950.22;348742;28;1423;-77
2022/09/08 00:11:40;;;;;;;930.20;873.53;;;;;;;18.82;69.61;99943.22;343415;28;1304;-77
2022/09/08 00:11:51;;;;;;;930.37;873.67;;;;;;;18.80;70.01;99945.13;343490;28;860;-77
2022/09/08 00:12:02;;;;;;;926.55;870.10;;;;;;;18.78;69.78;99944.38;343922;28;959;-77
2022/09/08 00:12:12;;;;;;;929.08;872.38;;;;;;;18.77;70.12;99944.47;346186;28;1124;-77
2022/09/08 00:12:24;;;;;;;927.03;870.40;;;;;;;18.78;70.03;99949.69;344736;28;1742;-77
2022/09/08 00:12:37;;;;;;;924.28;867.63;;;;;;;18.77;69.73;99944.47;346299;28;1252;-76
2022/09/08 00:12:48;;;;;;;920.30;863.80;;;;;;;18.77;69.72;99945.31;345635;28;4717;-76
2022/09/08 00:12:59;;;;;;;919.00;862.43;;;;;;;18.80;69.58;99947.75;343665;28;4401;-78
2022/09/08 00:13:09;;;;;;;923.35;866.67;;;;;;;18.80;69.42;99947.75;344369;28;3612;-77
2022/09/08 00:13:20;;;;;;;925.50;868.33;;;;;;;18.81;69.36;99941.50;345854;28;1182;-77
2022/09/08 00:13:31;;;;;;;927.42;870.33;;;;;;;18.83;69.51;99950.22;346084;28;1078;-77
2022/09/08 00:13:42;;;;;;;923.90;867.00;;;;;;;18.84;69.66;99946.59;342757;28;1863;-77
2022/09/08 00:13:52;;;;;;;921.90;865.58;;;;;;;18.81;69.57;99944.16;343424;28;832;-77
2022/09/08 00:14:04;;;;;;;927.23;870.80;;;;;;;18.80;69.43;99942.47;344065;28;1628;-77
2022/09/08 00:14:15;;;;;;;930.60;874.03;;;;;;;18.77;69.52;99942.69;343599;28;1276;-77
2022/09/08 00:14:25;;;;;;;925.90;869.55;;;;;;;18.75;69.74;99941.94;342114;28;912;-77
2022/09/08 00:14:35;;;;;;;926.10;869.60;;;;;;;18.79;69.47;99942.56;339418;29;1923;-76
2022/09/08 00:14:46;;;;;;;924.27;867.73;;;;;;;18.79;69.53;99943.41;343730;28;1421;-76
2022/09/08 00:14:57;;;;;;;923.75;867.10;;;;;;;18.77;69.56;99945.31;343378;28;905;-76
2022/09/08 00:15:09;;;;;;;923.40;866.83;;;;;;;18.79;69.50;99938.13;343350;28;1410;-76
2022/09/08 00:15:20;;;;;;;927.40;870.92;;;;;;;18.74;69.73;99942.88;339498;28;1419;-77
2022/09/08 00:15:30;;;;;;;931.75;875.15;;;;;;;18.75;69.49;99947.22;340516;28;1250;-76
2022/09/08 00:15:41;;;;;;;927.50;871.15;;;;;;;18.71;69.84;99940.44;340635;28;1396;-77
2022/09/08 00:15:52;;;;;;;920.17;864.00;;;;;;;18.73;69.51;99941.19;339417;29;1356;-77
2022/09/08 00:16:03;;;;;;;917.15;861.15;;;;;;;18.75;69.28;99941.09;339954;28;1771;-76
2022/09/08 00:16:18;;;;;;;922.95;866.72;;;;;;;18.70;69.50;99938.75;338629;29;1926;-76
2022/09/08 00:16:29;;;;;;;926.05;869.78;;;;;;;18.72;69.73;99946.59;339831;29;969;-76
2022/09/08 00:16:40;;;;;;;925.57;869.17;;;;;;;18.68;69.82;99948.59;339547;29;1242;-77
2022/09/08 00:16:50;;;;;;;924.90;868.45;;;;;;;18.68;69.51;99951.25;338347;29;937;-76
2022/09/08 00:17:01;;;;;;;930.10;873.42;;;;;;;18.68;69.54;99938.00;338778;29;1273;-76
2022/09/08 00:17:11;;;;;;;923.45;867.20;;;;;;;18.70;69.62;99949.34;339121;29;1553;-76
2022/09/08 00:17:22;;;;;;;920.40;864.23;;;;;;;18.70;69.42;99944.06;334555;29;1333;-76
2022/09/08 00:17:33;;;;;;;918.65;862.50;;;;;;;18.67;69.51;99941.59;337385;29;1666;-76
2022/09/08 00:17:43;;;;;;;926.47;869.90;;;;;;;18.70;70.14;99943.19;333129;29;1608;-76
2022/09/08 00:17:54;;;;;;;924.53;868.03;;;;;;;18.69;70.20;99942.34;329361;30;1396;-76
2022/09/08 00:18:05;;;;;;;920.27;863.87;;;;;;;18.68;69.88;99940.66;328815;29;2089;-76
2022/09/08 00:18:16;;;;;;;920.42;863.97;;;;;;;18.66;69.93;99947.88;331527;29;2151;-76
2022/09/08 00:18:26;;;;;;;924.03;867.60;;;;;;;18.70;69.55;99944.06;330551;29;1826;-76
2022/09/08 00:18:38;;;;;;;929.10;872.53;;;;;;;18.71;69.53;99951.06;333115;29;1649;-76
2022/09/08 00:18:50;;;;;;;928.83;872.35;;;;;;;18.74;69.02;99950.84;336434;29;1303;-76
2022/09/08 00:19:01;;;;;;;930.55;873.95;;;;;;;18.73;69.02;99949.13;333763;29;1301;-76
2022/09/08 00:19:11;;;;;;;927.45;870.95;;;;;;;18.71;69.41;99945.75;330648;29;1842;-76
2022/09/08 00:19:22;;;;;;;925.80;869.27;;;;;;;18.71;69.17;99945.75;330709;29;835;-76
2022/09/08 00:19:32;;;;;;;918.50;862.20;;;;;;;18.71;69.16;99944.91;331252;29;3262;-77
2022/09/08 00:19:43;;;;;;;918.90;862.60;;;;;;;18.70;69.02;99949.34;328174;29;2325;-76
2022/09/08 00:19:53;;;;;;;920.03;863.72;;;;;;;18.71;68.92;99951.06;322432;30;1424;-76
2022/09/08 00:20:05;;;;;;;927.73;871.13;;;;;;;18.74;68.71;99952.66;324318;30;2259;-76
2022/09/08 00:20:15;;;;;;;925.60;869.15;;;;;;;18.71;68.76;99951.06;328197;29;2712;-76
2022/09/08 00:20:26;;;;;;;921.10;864.80;;;;;;;18.72;68.67;99949.25;326959;30;2744;-76
2022/09/08 00:20:36;;;;;;;918.90;862.67;;;;;;;18.75;68.63;99947.22;326779;30;1360;-76
2022/09/08 00:20:47;;;;;;;925.05;868.50;;;;;;;18.74;68.66;99950.84;328202;30;1854;-76
2022/09/08 00:20:57;;;;;;;927.10;870.47;;;;;;;18.75;68.94;99941.94;328979;30;1386;-76
2022/09/08 00:21:08;;;;;;;928.13;871.57;;;;;;;18.75;68.85;99946.38;326515;30;1513;-76
2022/09/08 00:21:23;;;;;;;927.57;870.90;;;;;;;18.76;68.43;99945.44;329171;29;2109;-76
2022/09/08 00:21:33;;;;;;;927.67;871.00;;;;;;;18.77;68.36;99950.63;325477;29;5145;-76
2022/09/08 00:21:44;;;;;;;928.17;871.40;;;;;;;18.79;68.47;99948.72;322931;30;2952;-76
2022/09/08 00:21:54;;;;;;;925.72;869.08;;;;;;;18.80;68.60;99947.75;323254;30;837;-76
2022/09/08 00:22:04;;;;;;;920.03;863.53;;;;;;;18.76;68.80;99938.31;322311;30;3399;-76
2022/09/08 00:22:15;;;;;;;914.17;858.10;;;;;;;18.78;68.47;99947.03;322289;30;5059;-77
2022/09/08 00:22:26;;;;;;;918.20;862.07;;;;;;;18.77;68.70;99945.31;323087;30;1834;-77
2022/09/08 00:22:37;;;;;;;924.67;868.25;;;;;;;18.79;68.58;99953.19;312675;31;2908;-76
2022/09/08 00:22:47;;;;;;;925.23;868.77;;;;;;;18.76;68.82;99953.38;313069;31;3342;-76
2022/09/08 00:22:58;;;;;;;926.83;870.28;;;;;;;18.73;68.50;99949.13;314387;31;3046;-77
2022/09/08 00:23:08;;;;;;;925.07;868.53;;;;;;;18.71;68.44;99951.06;317456;31;806;-77
2022/09/08 00:23:19;;;;;;;925.38;868.72;;;;;;;18.69;68.58;99947.66;319076;30;2301;-77
2022/09/08 00:23:29;;;;;;;924.73;868.13;;;;;;;18.70;68.38;99948.50;319190;30;2580;-77
2022/09/08 00:23:39;;;;;;;925.90;869.40;;;;;;;18.70;68.20;99946.69;322125;30;1694;-77
2022/09/08 00:23:50;;;;;;;929.93;873.20;;;;;;;18.72;68.06;99951.91;318713;30;3065;-77
2022/09/08 00:24:00;;;;;;;931.80;874.97;;;;;;;18.74;67.95;99950.84;316336;31;3918;-76
2022/09/08 00:24:11;;;;;;;936.37;879.37;;;;;;;18.75;67.83;99946.38;313870;31;4189;-76
2022/09/08 00:24:21;;;;;;;929.10;872.38;;;;;;;18.78;67.75;99949.69;314044;31;1359;-76
2022/09/08 00:24:33;;;;;;;926.20;869.70;;;;;;;18.78;68.00;99944.38;310619;31;4477;-77
2022/09/08 00:24:43;;;;;;;920.05;863.80;;;;;;;18.76;67.77;99942.78;309880;31;4050;-77
2022/09/08 00:24:53;;;;;;;924.93;868.43;;;;;;;18.75;68.28;99946.38;311591;31;1248;-76
2022/09/08 00:25:04;;;;;;;925.38;868.78;;;;;;;18.73;68.15;99949.13;316652;31;4721;-76
2022/09/08 00:25:15;;;;;;;933.50;876.37;;;;;;;18.70;68.08;99941.41;314197;31;3343;-76
2022/09/08 00:25:26;;;;;;;926.38;869.60;;;;;;;18.71;67.98;99948.41;312981;31;1271;-76
2022/09/08 00:25:37;;;;;;;920.72;864.05;;;;;;;18.74;68.04;99947.34;308583;32;883;-76
2022/09/08 00:25:47;;;;;;;915.45;859.15;;;;;;;18.73;68.04;99943.84;309293;31;3965;-76
2022/09/08 00:25:58;;;;;;;921.63;865.23;;;;;;;18.71;68.19;99939.59;308285;31;4585;-76
2022/09/08 00:26:08;;;;;;;926.05;869.40;;;;;;;18.69;68.32;99941.50;306319;32;1208;-76
2022/09/08 00:26:19;;;;;;;930.37;873.60;;;;;;;18.69;68.31;99947.66;303898;32;5475;-76
2022/09/08 00:26:30;;;;;;;929.12;872.46;;;;;;;18.67;68.54;99949.56;303165;32;5731;-76
2022/09/08 00:26:40;;;;;;;929.70;873.20;;;;;;;18.66;68.43;99942.56;305670;32;1220;-76
2022/09/08 00:26:50;;;;;;;923.23;867.00;;;;;;;18.66;68.43;99947.88;303204;32;935;-76
2022/09/08 00:27:01;;;;;;;923.53;867.22;;;;;;;18.67;68.66;99944.25;300666;32;6020;-76
2022/09/08 00:27:11;;;;;;;922.87;866.67;;;;;;;18.70;68.57;99946.69;296930;33;6749;-76
2022/09/08 00:27:22;;;;;;;925.58;869.13;;;;;;;18.71;68.61;99944.91;293407;33;1336;-76
2022/09/08 00:27:32;;;;;;;924.17;867.77;;;;;;;18.70;68.61;99944.06;295094;33;5344;-77
2022/09/08 00:27:42;;;;;;;922.13;865.70;;;;;;;18.70;68.48;99949.34;292884;33;4639;-77
2022/09/08 00:27:53;;;;;;;924.07;867.70;;;;;;;18.69;68.51;99947.66;292954;33;1157;-77
2022/09/08 00:28:03;;;;;;;923.90;867.50;;;;;;;18.70;68.49;99944.06;289601;33;5733;-76
2022/09/08 00:28:14;;;;;;;925.22;868.80;;;;;;;18.71;68.32;99945.75;291076;33;7030;-75
2022/09/08 00:28:24;;;;;;;924.67;868.17;;;;;;;18.73;68.33;99946.50;294205;33;1285;-77
2022/09/08 00:28:35;;;;;;;925.78;868.95;;;;;;;18.74;68.34;99948.19;289741;33;8581;-77
2022/09/08 00:28:45;;;;;;;922.63;866.00;;;;;;;18.74;68.39;99942.03;286782;33;8360;-76
2022/09/08 00:28:56;;;;;;;921.50;865.15;;;;;;;18.73;68.30;99938.53;284990;34;8217;-77
2022/09/08 00:29:06;;;;;;;923.53;867.27;;;;;;;18.76;68.12;99938.31;290078;34;1136;-77
2022/09/08 00:29:16;;;;;;;925.22;868.78;;;;;;;18.79;68.13;99948.72;287466;33;7879;-77
2022/09/08 00:31:09;;;;;;;867.91;812.72;;;;;;;18.74;68.03;99940.22;2497632;27;20506;-75
2022/09/08 00:31:20;;;;;;;930.80;873.60;;;;;;;18.73;68.23;99941.19;351030;28;2999;-75
2022/09/08 00:31:30;;;;;;;925.40;868.90;;;;;;;18.74;68.08;99940.22;349941;28;5217;-75
2022/09/08 00:31:41;;;;;;;927.50;870.83;;;;;;;18.73;68.11;99949.13;347514;28;1403;-75
2022/09/08 00:31:51;;;;;;;929.70;872.83;;;;;;;18.73;68.29;99948.28;347419;28;1441;-77
2022/09/08 00:32:02;;;;;;;931.07;874.27;;;;;;;18.71;68.20;99944.91;346077;28;2897;-77
2022/09/08 00:32:12;;;;;;;933.42;876.63;;;;;;;18.70;68.38;99944.06;347775;28;1307;-77
2022/09/08 00:32:23;;;;;;;933.27;876.43;;;;;;;18.66;68.31;99939.06;348874;28;1478;-76
2022/09/08 00:32:33;;;;;;;931.63;874.83;;;;;;;18.65;68.65;99946.16;349228;28;1361;-76
2022/09/08 00:32:44;;;;;;;929.40;872.47;;;;;;;18.63;68.66;99942.78;348910;28;1211;-76
2022/09/08 00:32:54;;;;;;;926.33;869.13;;;;;;;18.64;68.69;99948.91;347287;28;1299;-76
2022/09/08 00:33:05;;;;;;;935.93;877.60;;;;;;;18.60;68.67;99946.50;348211;28;1251;-76
2022/09/08 00:33:15;;;;;;;931.03;872.88;;;;;;;18.59;68.73;99942.13;350265;28;887;-76
2022/09/08 00:33:26;;;;;;;934.37;876.17;;;;;;;18.59;68.84;99950.09;348198;28;1486;-76
2022/09/08 00:33:36;;;;;;;930.00;872.40;;;;;;;18.58;68.90;99950.19;348679;28;1870;-76
2022/09/08 00:33:46;;;;;;;937.40;879.90;;;;;;;18.56;68.82;99946.78;348886;28;951;-76
2022/09/08 00:33:57;;;;;;;936.10;879.15;;;;;;;18.57;69.03;99948.50;347566;28;1478;-76
2022/09/08 00:34:08;;;;;;;936.77;879.77;;;;;;;18.58;68.98;99950.19;347393;28;821;-76
2022/09/08 00:34:18;;;;;;;928.65;871.78;;;;;;;18.56;68.93;99946.78;347395;28;844;-76
2022/09/08 00:34:29;;;;;;;924.85;868.15;;;;;;;18.56;68.74;99954.75;347413;28;1279;-76
2022/09/08 00:34:39;;;;;;;923.65;867.05;;;;;;;18.57;69.02;99954.63;348850;28;1222;-76
2022/09/08 00:34:50;;;;;;;927.83;871.27;;;;;;;18.56;68.92;99949.44;350329;28;1342;-76
2022/09/08 00:35:00;;;;;;;930.57;873.90;;;;;;;18.56;69.28;99952.94;348600;28;1315;-76
2022/09/08 00:35:14;;;;;;;922.75;866.40;;;;;;;18.55;69.39;99945.09;349434;28;1464;-77
2022/09/08 00:35:25;;;;;;;916.20;860.25;;;;;;;18.55;69.27;99951.25;345966;28;5612;-78
2022/09/08 00:35:35;;;;;;;916.92;861.03;;;;;;;18.55;69.39;99955.69;344271;28;1281;-75
2022/09/08 00:35:48;;;;;;;919.67;863.60;;;;;;;18.53;69.85;99949.66;344338;28;1362;-75
2022/09/08 00:35:58;;;;;;;927.92;871.42;;;;;;;18.46;69.67;99948.38;341630;28;5051;-75
2022/09/08 00:36:15;;;;;;;927.10;870.50;;;;;;;18.48;69.92;99946.47;344583;28;937;-76
2022/09/08 00:36:26;;;;;;;923.08;866.83;;;;;;;18.45;70.36;99947.53;343365;28;1675;-76
2022/09/08 00:36:37;;;;;;;927.08;870.70;;;;;;;18.42;70.46;99949.53;344704;28;1197;-76
2022/09/08 00:36:47;;;;;;;929.50;872.72;;;;;;;18.42;70.03;99949.53;347055;28;1379;-77
2022/09/08 00:36:58;;;;;;;935.30;878.27;;;;;;;18.44;70.21;99952.91;343325;28;1235;-76
2022/09/08 00:37:08;;;;;;;930.40;873.40;;;;;;;18.39;70.21;99949.72;343473;28;848;-76
2022/09/08 00:37:20;;;;;;;932.03;875.13;;;;;;;18.39;70.33;99949.72;342828;28;917;-77
2022/09/08 00:37:32;;;;;;;931.65;874.78;;;;;;;18.39;70.17;99952.38;344715;28;1287;-77
2022/09/08 00:37:43;;;;;;;939.72;882.80;;;;;;;18.39;70.54;99955.03;343275;28;5561;-76
2022/09/08 00:37:53;;;;;;;934.87;878.13;;;;;;;18.41;70.84;99953.13;342574;28;1313;-76
2022/09/08 00:38:04;;;;;;;927.75;871.15;;;;;;;18.40;70.19;99949.63;340700;29;897;-76
2022/09/08 00:38:14;;;;;;;921.13;864.80;;;;;;;18.43;70.06;99951.22;340815;29;1048;-77
2022/09/08 00:38:26;;;;;;;926.37;869.73;;;;;;;18.47;69.83;99944.75;342136;28;930;-76
2022/09/08 00:38:36;;;;;;;932.55;875.75;;;;;;;18.49;69.88;99950.81;340892;28;1609;-77
2022/09/08 00:38:51;;;;;;;934.92;878.13;;;;;;;18.50;69.90;99956.00;339249;29;1225;-77
2022/09/08 00:39:01;;;;;;;932.03;875.63;;;;;;;18.54;69.76;99956.66;339333;28;5448;-77
2022/09/08 00:39:11;;;;;;;932.70;876.23;;;;;;;18.54;69.58;99956.66;339429;29;2222;-76
2022/09/08 00:39:23;;;;;;;931.55;874.95;;;;;;;18.57;69.66;99953.78;339089;29;1327;-77
2022/09/08 00:39:33;;;;;;;932.78;876.05;;;;;;;18.59;69.51;99957.19;338288;29;1176;-77
2022/09/08 00:39:44;;;;;;;933.45;876.75;;;;;;;18.63;69.44;99957.88;336568;29;1686;-77
2022/09/08 00:39:54;;;;;;;933.42;876.83;;;;;;;18.63;69.58;99961.31;338211;29;853;-77
2022/09/08 00:40:05;;;;;;;930.33;873.83;;;;;;;18.62;69.39;99956.16;338889;29;1977;-77
2022/09/08 00:40:16;;;;;;;928.85;872.20;;;;;;;18.64;69.45;99956.88;337339;29;1191;-77
2022/09/08 00:40:27;;;;;;;925.75;869.15;;;;;;;18.63;69.19;99952.56;335060;29;3879;-77
2022/09/08 00:40:47;;;;;;;925.77;869.17;;;;;;;18.60;69.35;99958.91;336836;29;3021;-77
2022/09/08 00:40:57;;;;;;;926.60;870.30;;;;;;;18.59;68.97;99957.19;334036;29;2104;-77
2022/09/08 00:41:11;;;;;;;923.53;867.33;;;;;;;18.60;68.90;99958.91;334566;29;2949;-77
2022/09/08 00:41:22;;;;;;;924.42;868.03;;;;;;;18.60;69.26;99959.78;334799;29;4973;-77
2022/09/08 00:41:33;;;;;;;921.75;865.42;;;;;;;18.59;68.92;99954.53;335259;29;1975;-77
2022/09/08 00:41:43;;;;;;;918.60;862.40;;;;;;;18.57;69.28;99956.44;335619;29;844;-77
2022/09/08 00:41:55;;;;;;;920.97;864.65;;;;;;;18.56;69.06;99954.75;329221;30;1151;-77
2022/09/08 00:42:06;;;;;;;934.13;877.42;;;;;;;18.55;69.21;99956.53;329014;29;2031;-77
2022/09/08 00:42:16;;;;;;;937.65;880.85;;;;;;;18.55;69.11;99955.69;328878;29;1490;-77
2022/09/08 00:42:27;;;;;;;931.60;874.77;;;;;;;18.55;69.13;99956.53;331696;29;1265;-77
2022/09/08 00:42:37;;;;;;;923.85;867.30;;;;;;;18.54;69.23;99959.31;333868;29;1204;-77
2022/09/08 00:42:57;;;;;;;922.43;865.93;;;;;;;18.55;68.73;99958.34;331715;29;1257;-77
2022/09/08 00:43:07;;;;;;;931.65;875.00;;;;;;;18.54;69.29;99957.50;324227;30;5548;-77
2022/09/08 00:43:40;;;;;;;933.07;876.27;;;;;;;18.49;69.59;99953.47;323687;29;2244;-77
2022/09/08 00:43:58;;;;;;;920.70;864.97;;;;;;;18.49;69.47;99956.13;326764;29;2455;-77
2022/09/08 00:44:34;;;;;;;913.40;857.58;;;;;;;18.50;69.24;99957.81;322940;30;5712;-77
2022/09/08 00:44:49;;;;;;;921.58;865.78;;;;;;;18.53;69.33;99963.75;324875;30;1226;-77
2022/09/08 00:44:59;;;;;;;922.85;866.90;;;;;;;18.54;69.32;99960.16;321422;30;5189;-77
2022/09/08 00:45:17;;;;;;;921.20;865.20;;;;;;;18.52;69.44;99955.91;319109;30;1364;-77
2022/09/08 00:45:32;;;;;;;915.83;860.00;;;;;;;18.53;69.22;99965.56;312148;31;903;-77
2022/09/08 00:45:44;;;;;;;917.47;861.38;;;;;;;18.51;69.21;99957.72;311388;31;1923;-77
2022/09/08 00:45:54;;;;;;;915.90;859.63;;;;;;;18.55;68.98;99963.66;308724;32;904;-77
2022/09/08 00:46:12;;;;;;;914.58;858.38;;;;;;;18.56;69.00;99960.03;306927;31;2907;-77
2022/09/08 00:46:37;;;;;;;912.03;856.17;;;;;;;18.57;68.99;99964.41;306570;31;5385;-77
2022/09/08 00:46:48;;;;;;;922.42;866.20;;;;;;;18.55;68.72;99963.66;308287;31;5477;-77
2022/09/08 00:46:58;;;;;;;919.10;863.00;;;;;;;18.53;69.21;99961.09;306271;32;1090;-77
2022/09/08 00:47:33;;;;;;;912.58;856.47;;;;;;;18.55;68.71;99961.00;301683;32;1319;-77
2022/09/08 00:47:57;;;;;;;924.30;868.00;;;;;;;18.55;69.11;99967.16;292155;33;4060;-77
2022/09/08 00:48:10;;;;;;;927.30;871.10;;;;;;;18.55;69.11;99958.34;292845;33;4757;-77
2022/09/08 00:48:21;;;;;;;926.28;869.78;;;;;;;18.52;69.00;99966.50;293505;33;5591;-77
2022/09/08 00:48:31;;;;;;;920.72;864.38;;;;;;;18.53;69.13;99957.59;293130;33;4400;-77
2022/09/08 00:49:09;;;;;;;926.85;870.22;;;;;;;18.48;69.19;99962.38;289844;34;1641;-77
2022/09/08 00:49:21;;;;;;;915.88;859.67;;;;;;;18.46;69.33;99962.47;284141;34;2645;-77
2022/09/08 00:49:32;;;;;;;913.67;857.58;;;;;;;18.44;69.56;99964.38;283846;34;4283;-77
2022/09/08 00:49:43;;;;;;;918.22;861.88;;;;;;;18.43;69.44;99967.13;286784;34;5132;-76
2022/09/08 00:50:04;;;;;;;921.28;864.85;;;;;;;18.43;69.53;99961.81;281436;35;3228;-76
2022/09/08 00:50:17;;;;;;;922.17;865.88;;;;;;;18.46;69.46;99966.91;278334;34;6374;-76
2022/09/08 00:50:28;;;;;;;925.20;868.80;;;;;;;18.48;69.32;99971.16;283277;34;933;-76
2022/09/08 00:50:38;;;;;;;925.17;868.80;;;;;;;18.50;69.28;99969.25;277928;35;6735;-76
2022/09/08 00:50:49;;;;;;;926.55;870.03;;;;;;;18.51;69.23;99970.97;280184;34;6063;-76
2022/09/08 00:50:59;;;;;;;927.47;870.93;;;;;;;18.48;69.29;99965.88;278586;35;5428;-76
2022/09/08 00:51:11;;;;;;;924.15;867.80;;;;;;;18.47;69.28;99969.47;274874;35;868;-76
2022/09/08 00:51:22;;;;;;;924.30;867.85;;;;;;;18.48;69.51;99971.16;273215;35;3394;-77
2022/09/08 00:51:33;;;;;;;921.55;865.17;;;;;;;18.50;69.18;99973.72;270081;35;4303;-77
2022/09/08 00:51:45;;;;;;;927.38;870.75;;;;;;;18.53;69.24;99976.16;270000;36;6832;-77
2022/09/08 00:51:57;;;;;;;931.60;874.83;;;;;;;18.53;69.04;99965.56;271909;36;1355;-77
2022/09/08 00:52:07;;;;;;;933.45;876.63;;;;;;;18.51;68.99;99970.97;268072;36;8309;-77
2022/09/08 00:52:18;;;;;;;925.38;868.70;;;;;;;18.50;69.43;99965.75;265749;36;9566;-77
2022/09/08 00:53:50;;;;;;;861.16;806.81;;;;;;;18.47;69.77;99977.41;2495967;27;20316;-77
2022/09/08 00:54:00;;;;;;;923.47;867.27;;;;;;;18.46;69.29;99972.22;352803;28;1290;-76
2022/09/08 00:54:11;;;;;;;922.17;866.05;;;;;;;18.44;69.77;99980.28;350337;28;945;-76
2022/09/08 00:54:22;;;;;;;926.85;870.40;;;;;;;18.45;69.78;99981.13;348770;28;1175;-76
2022/09/08 00:54:33;;;;;;;922.90;866.53;;;;;;;18.44;69.65;99974.97;348719;28;1398;-76
2022/09/08 00:54:43;;;;;;;922.40;866.00;;;;;;;18.43;69.68;99978.56;350125;28;1584;-76
2022/09/08 00:54:54;;;;;;;922.97;866.58;;;;;;;18.41;69.99;99976.97;350245;28;1448;-76
2022/09/08 00:55:06;;;;;;;925.57;868.87;;;;;;;18.39;70.09;99976.25;350104;28;1441;-76
2022/09/08 00:55:16;;;;;;;926.17;869.55;;;;;;;18.38;69.95;99985.13;350129;28;1300;-76
2022/09/08 00:55:28;;;;;;;928.42;871.83;;;;;;;18.36;70.15;99976.44;348961;28;1868;-76
2022/09/08 00:55:39;;;;;;;927.97;871.13;;;;;;;18.34;69.93;99979.19;348772;28;973;-76
2022/09/08 00:55:49;;;;;;;929.13;872.13;;;;;;;18.35;69.92;99980.03;348642;28;1678;-76
2022/09/08 00:56:01;;;;;;;929.42;872.42;;;;;;;18.35;69.84;99980.03;350232;28;938;-76
2022/09/08 00:56:12;;;;;;;927.38;870.70;;;;;;;18.36;69.99;99987.03;349121;28;1385;-76
2022/09/08 00:56:22;;;;;;;925.78;869.22;;;;;;;18.36;70.11;99985.25;348837;28;1538;-76
2022/09/08 00:56:33;;;;;;;925.43;868.90;;;;;;;18.36;69.91;99977.28;347409;28;821;-76
2022/09/08 00:56:44;;;;;;;925.45;868.78;;;;;;;18.39;69.72;99981.53;347337;28;1342;-76
2022/09/08 00:56:54;;;;;;;923.20;866.40;;;;;;;18.39;69.70;99981.53;347380;28;1256;-77
2022/09/08 00:57:05;;;;;;;925.37;868.77;;;;;;;18.39;70.20;99982.38;346801;28;1655;-76
2022/09/08 00:57:16;;;;;;;926.33;870.05;;;;;;;18.38;70.17;99985.13;345117;28;1849;-76
2022/09/08 00:57:26;;;;;;;921.72;865.58;;;;;;;18.36;70.11;99977.28;347822;28;1340;-76
2022/09/08 00:57:37;;;;;;;916.73;860.43;;;;;;;18.37;70.18;99978.13;344818;28;1194;-76
2022/09/08 00:57:47;;;;;;;916.28;859.95;;;;;;;18.35;70.29;99980.03;344698;28;1065;-76
2022/09/08 00:57:58;;;;;;;920.87;864.40;;;;;;;18.33;70.15;99976.66;344580;28;1481;-76
2022/09/08 00:58:08;;;;;;;921.78;865.35;;;;;;;18.33;70.20;99979.28;344839;28;900;-76